Time;durP1;ratioP1;P1;durP2;ratioP2;P2;SDS_P1;SDS_P2;PMS_P1;PMS_P2;Temp;Humidity;BMP_temperature;BMP_pressure;BME280_temperature;BME280_humidity;BME280_pressure;Samples;Min_cycle;Max_cycle;Signal;HPM_P1;HPM_P2
2022/03/09 00:00:00;;;;;;;21.17;19.03;;;-1.10;13.10;;;;;;4958178;28;20209;-72
2022/03/09 00:02:25;;;;;;;19.60;18.07;;;-1.10;12.70;;;;;;4958240;28;20208;-71
2022/03/09 00:04:51;;;;;;;18.23;16.80;;;-1.00;12.70;;;;;;4957860;28;20175;-73
2022/03/09 00:07:16;;;;;;;19.10;17.60;;;-1.00;12.10;;;;;;4957197;28;20174;-73
2022/03/09 00:09:42;;;;;;;19.17;17.17;;;-0.90;12.10;;;;;;4957508;28;20197;-73
2022/03/09 00:12:08;;;;;;;19.87;18.27;;;-0.80;12.20;;;;;;4972211;28;20209;-72
2022/03/09 00:14:34;;;;;;;20.80;19.40;;;-0.70;11.70;;;;;;4957418;28;20593;-73
2022/03/09 00:16:59;;;;;;;17.57;16.37;;;-0.70;11.90;;;;;;4955749;28;20186;-73
2022/03/09 00:19:25;;;;;;;19.97;18.17;;;-0.70;12.30;;;;;;4957267;28;20189;-73
2022/03/09 00:21:51;;;;;;;19.70;17.93;;;-0.70;11.80;;;;;;4955766;28;20217;-72
2022/03/09 00:24:18;;;;;;;19.83;18.23;;;-0.70;11.90;;;;;;4957195;28;20213;-72
2022/03/09 00:26:44;;;;;;;19.60;18.17;;;-0.70;12.30;;;;;;4956926;28;20174;-73
2022/03/09 00:29:10;;;;;;;22.13;19.40;;;-0.70;12.10;;;;;;4957233;28;20245;-73
2022/03/09 00:31:35;;;;;;;20.33;18.70;;;-0.80;12.80;;;;;;4957108;28;20221;-73
2022/03/09 00:34:01;;;;;;;19.07;17.77;;;-0.80;12.20;;;;;;4957086;28;20233;-74
2022/03/09 00:36:26;;;;;;;21.33;19.47;;;-0.80;12.20;;;;;;4956775;28;20182;-72
2022/03/09 00:38:52;;;;;;;20.30;18.43;;;-0.90;12.40;;;;;;4956937;28;20186;-74
2022/03/09 00:41:17;;;;;;;20.43;18.60;;;-0.80;12.30;;;;;;4956876;28;20214;-74
2022/03/09 00:43:43;;;;;;;19.73;18.23;;;-0.80;12.20;;;;;;4957259;28;20181;-74
2022/03/09 00:46:09;;;;;;;21.17;19.10;;;-0.90;12.60;;;;;;4971764;28;20178;-73
2022/03/09 00:48:34;;;;;;;20.37;18.30;;;-0.90;12.40;;;;;;4956599;28;20182;-73
2022/03/09 00:51:00;;;;;;;20.90;19.10;;;-1.00;12.80;;;;;;4956796;28;20186;-73
2022/03/09 00:53:25;;;;;;;21.20;19.20;;;-0.90;13.00;;;;;;4956724;28;20194;-74
2022/03/09 00:55:51;;;;;;;20.63;18.93;;;-0.80;12.60;;;;;;4956783;28;20215;-73
2022/03/09 00:58:16;;;;;;;20.00;18.20;;;-0.80;12.40;;;;;;4956861;28;20210;-74
2022/03/09 01:00:42;;;;;;;20.43;18.73;;;-1.00;12.90;;;;;;4956832;28;20213;-73
2022/03/09 01:03:08;;;;;;;20.33;18.47;;;-1.00;13.00;;;;;;4971389;28;20198;-73
2022/03/09 01:05:33;;;;;;;19.17;17.63;;;-1.00;12.80;;;;;;4956813;28;20170;-73
2022/03/09 01:07:59;;;;;;;20.23;18.73;;;-1.10;13.20;;;;;;4956365;28;20173;-73
2022/03/09 01:10:24;;;;;;;19.10;17.40;;;-1.10;13.10;;;;;;4956253;28;20181;-73
2022/03/09 01:12:50;;;;;;;20.07;18.27;;;-1.10;13.20;;;;;;4956594;28;20202;-73
2022/03/09 01:15:16;;;;;;;26.73;20.87;;;-1.20;13.50;;;;;;4956549;28;20229;-73
2022/03/09 01:17:41;;;;;;;21.00;19.33;;;-1.40;13.80;;;;;;4956380;28;20185;-72
2022/03/09 01:20:07;;;;;;;20.10;18.60;;;-1.50;14.20;;;;;;4956363;28;20310;-73
2022/03/09 01:22:33;;;;;;;19.08;17.75;;;-1.50;14.30;;;;;;4957350;28;20594;-73
2022/03/09 01:24:58;;;;;;;19.70;18.03;;;-1.40;14.10;;;;;;4957044;28;20174;-73
2022/03/09 01:27:24;;;;;;;20.53;18.97;;;-1.40;13.90;;;;;;4961287;28;20636;-72
2022/03/09 01:29:49;;;;;;;22.93;20.83;;;-1.40;14.00;;;;;;4965127;28;20178;-74
2022/03/09 01:32:15;;;;;;;21.20;19.23;;;-1.50;14.20;;;;;;4958017;28;20791;-75
2022/03/09 01:34:40;;;;;;;20.73;18.60;;;-1.50;14.70;;;;;;4958945;28;20289;-74
2022/03/09 01:37:06;;;;;;;20.20;18.70;;;-1.40;14.20;;;;;;4960381;28;20189;-73
2022/03/09 01:39:32;;;;;;;20.10;18.40;;;-1.40;14.00;;;;;;4959583;28;20658;-74
2022/03/09 01:41:57;;;;;;;19.20;17.50;;;-1.40;14.10;;;;;;4957822;28;20209;-72
2022/03/09 01:44:23;;;;;;;20.20;18.80;;;-1.30;14.50;;;;;;4959656;28;20178;-71
2022/03/09 01:46:51;;;;;;;20.15;18.65;;;-1.30;14.20;;;;;;4961018;28;20241;-71
2022/03/09 01:49:18;;;;;;;18.60;16.98;;;-1.30;14.00;;;;;;4960314;28;20527;-72
2022/03/09 01:51:46;;;;;;;19.35;18.02;;;-1.30;13.90;;;;;;4956265;28;20587;-71
2022/03/09 01:54:13;;;;;;;20.13;18.40;;;-1.30;13.90;;;;;;4955889;28;20556;-72
2022/03/09 01:56:39;;;;;;;19.98;18.00;;;-1.40;14.60;;;;;;4955488;28;20190;-72
2022/03/09 01:59:07;;;;;;;20.08;18.40;;;-1.40;14.30;;;;;;4955658;28;20182;-72
2022/03/09 02:01:34;;;;;;;19.50;17.90;;;-1.30;14.20;;;;;;4955316;28;20213;-72
2022/03/09 02:04:02;;;;;;;19.50;17.83;;;-1.30;13.80;;;;;;4955546;28;20264;-73
2022/03/09 02:06:28;;;;;;;18.98;17.05;;;-1.40;13.80;;;;;;4955737;28;20178;-72
2022/03/09 02:11:39;;;;;;;18.35;16.60;;;-1.50;13.90;;;;;;4955600;29;20209;-72
2022/03/09 02:14:05;;;;;;;19.00;17.20;;;-1.60;14.30;;;;;;4955343;28;20549;-75
2022/03/09 02:16:30;;;;;;;18.60;17.25;;;-1.60;14.80;;;;;;4954920;28;20421;-73
2022/03/09 02:18:59;;;;;;;18.13;16.83;;;-1.60;14.80;;;;;;4955604;28;20185;-72
2022/03/09 02:21:27;;;;;;;20.80;18.73;;;-1.60;15.00;;;;;;4954613;28;20210;-71
2022/03/09 02:23:55;;;;;;;23.70;20.08;;;-1.70;15.10;;;;;;4955075;28;20244;-72
2022/03/09 02:26:21;;;;;;;19.63;18.10;;;-1.70;15.50;;;;;;4954851;28;20550;-71
2022/03/09 02:28:47;;;;;;;23.07;18.97;;;-1.70;15.10;;;;;;4954909;28;20178;-73
2022/03/09 02:31:13;;;;;;;21.10;19.38;;;-1.80;15.20;;;;;;4955176;28;20201;-73
2022/03/09 02:33:43;;;;;;;20.83;18.90;;;-1.90;15.50;;;;;;4970141;28;20181;-72
2022/03/09 02:36:09;;;;;;;20.17;18.10;;;-1.90;15.70;;;;;;4954981;28;20185;-72
2022/03/09 02:38:34;;;;;;;22.00;20.13;;;-1.70;15.90;;;;;;4954647;28;20178;-73
2022/03/09 02:41:00;;;;;;;20.63;18.63;;;-1.70;15.20;;;;;;4969463;28;20219;-71
2022/03/09 02:43:27;;;;;;;20.20;18.43;;;-1.70;15.30;;;;;;4954889;28;20257;-71
2022/03/09 02:45:52;;;;;;;19.70;18.02;;;-1.90;15.70;;;;;;4955031;28;20166;-72
2022/03/09 02:48:18;;;;;;;17.17;16.07;;;-1.80;15.80;;;;;;4955256;28;20189;-71
2022/03/09 02:50:43;;;;;;;18.43;17.07;;;-1.70;15.40;;;;;;4954706;28;20185;-72
2022/03/09 02:53:09;;;;;;;19.10;17.57;;;-1.70;15.20;;;;;;4954573;28;20501;-73
2022/03/09 02:55:35;;;;;;;17.40;16.10;;;-1.70;15.40;;;;;;4955146;28;20691;-73
2022/03/09 02:58:00;;;;;;;17.83;16.50;;;-1.70;15.20;;;;;;4969504;28;20190;-72
2022/03/09 03:00:26;;;;;;;18.73;17.40;;;-1.80;15.50;;;;;;4954724;28;20558;-71
2022/03/09 03:02:51;;;;;;;18.67;17.20;;;-2.00;15.70;;;;;;4954590;28;20198;-73
2022/03/09 03:05:17;;;;;;;19.47;17.50;;;-2.00;16.20;;;;;;4954527;28;20636;-73
2022/03/09 03:07:42;;;;;;;17.60;15.97;;;-1.90;16.00;;;;;;4954471;28;20170;-73
2022/03/09 03:10:09;;;;;;;17.60;16.10;;;-1.90;15.70;;;;;;4954443;28;20174;-71
2022/03/09 03:12:34;;;;;;;16.10;14.80;;;-1.80;15.60;;;;;;4954086;28;20284;-71
2022/03/09 03:15:00;;;;;;;15.33;14.03;;;-1.90;15.70;;;;;;4968921;28;20260;-72
2022/03/09 03:17:26;;;;;;;17.27;15.80;;;-1.90;15.70;;;;;;4954023;28;20670;-72
2022/03/09 03:19:51;;;;;;;16.13;15.23;;;-2.00;15.70;;;;;;4954195;28;20185;-72
2022/03/09 03:22:17;;;;;;;17.80;16.40;;;-2.00;15.60;;;;;;4969170;28;20193;-71
2022/03/09 03:24:42;;;;;;;18.37;16.90;;;-2.10;15.60;;;;;;4954089;28;20252;-72
2022/03/09 03:27:08;;;;;;;16.20;15.10;;;-2.10;15.60;;;;;;4953951;28;20212;-72
2022/03/09 03:29:33;;;;;;;17.37;16.27;;;-2.20;15.60;;;;;;4953040;28;20727;-71
2022/03/09 03:31:59;;;;;;;16.37;15.37;;;-2.10;15.60;;;;;;4968547;28;20300;-71
2022/03/09 03:34:24;;;;;;;16.30;15.10;;;-2.00;15.70;;;;;;4954025;28;20178;-70
2022/03/09 03:36:50;;;;;;;17.80;16.30;;;-2.20;15.70;;;;;;4953713;28;20188;-72
2022/03/09 03:39:16;;;;;;;17.90;16.50;;;-2.20;16.10;;;;;;4968802;28;20182;-72
2022/03/09 03:41:41;;;;;;;18.90;17.33;;;-2.30;17.10;;;;;;4953844;28;20284;-71
2022/03/09 03:44:07;;;;;;;20.03;18.20;;;-2.30;16.60;;;;;;4953872;28;20184;-71
2022/03/09 03:46:34;;;;;;;18.37;16.73;;;-2.30;16.20;;;;;;4953640;28;20414;-72
2022/03/09 03:48:59;;;;;;;17.88;16.38;;;-2.50;17.20;;;;;;4954182;28;20181;-71
2022/03/09 03:51:25;;;;;;;20.17;18.20;;;-2.50;17.50;;;;;;4968577;28;20687;-72
2022/03/09 03:53:50;;;;;;;21.17;19.20;;;-2.50;17.00;;;;;;4954306;28;20193;-71
2022/03/09 03:56:16;;;;;;;19.30;17.77;;;-2.50;17.20;;;;;;4953801;28;20185;-72
2022/03/09 03:58:41;;;;;;;17.53;16.23;;;-2.50;17.10;;;;;;4953524;28;20566;-71
2022/03/09 04:01:07;;;;;;;20.97;18.93;;;-2.40;17.00;;;;;;4952283;28;20579;-72
2022/03/09 04:03:32;;;;;;;18.83;17.33;;;-2.50;16.80;;;;;;4953751;28;20174;-73
2022/03/09 04:05:58;;;;;;;17.60;16.23;;;-2.50;17.10;;;;;;4953797;28;20696;-72
2022/03/09 04:08:23;;;;;;;18.30;16.90;;;-2.40;17.10;;;;;;4953399;28;20261;-73
2022/03/09 04:10:51;;;;;;;20.57;18.73;;;-2.40;17.00;;;;;;4952479;28;20225;-72
2022/03/09 04:13:16;;;;;;;19.10;17.70;;;-2.40;17.00;;;;;;4953916;28;20194;-73
2022/03/09 04:15:42;;;;;;;18.53;16.93;;;-2.60;17.50;;;;;;4953494;28;20182;-71
2022/03/09 04:18:07;;;;;;;19.80;17.90;;;-2.70;17.60;;;;;;4953360;28;20229;-73
2022/03/09 04:20:33;;;;;;;18.93;17.43;;;-2.70;18.10;;;;;;4968315;28;20217;-72
2022/03/09 04:22:58;;;;;;;18.80;17.20;;;-2.60;17.50;;;;;;4968230;28;20256;-72
2022/03/09 04:25:26;;;;;;;19.53;17.73;;;-2.80;17.60;;;;;;4953541;28;20182;-71
2022/03/09 04:27:51;;;;;;;17.25;15.93;;;-2.80;18.00;;;;;;4953173;28;20174;-72
2022/03/09 04:30:17;;;;;;;17.40;16.17;;;-2.70;18.20;;;;;;4953515;28;20236;-72
2022/03/09 04:32:43;;;;;;;16.80;15.10;;;-2.60;17.60;;;;;;4952088;29;20209;-72
2022/03/09 04:35:09;;;;;;;15.87;14.40;;;-2.60;17.60;;;;;;4953527;28;20251;-71
2022/03/09 04:37:34;;;;;;;16.08;14.80;;;-2.60;17.40;;;;;;4953462;28;20703;-72
2022/03/09 04:40:02;;;;;;;15.97;14.77;;;-2.60;17.20;;;;;;4954430;28;20301;-73
2022/03/09 04:42:28;;;;;;;17.25;15.90;;;-2.70;17.00;;;;;;4953559;28;20994;-72
2022/03/09 04:44:54;;;;;;;17.70;16.48;;;-2.80;17.40;;;;;;4955261;28;20178;-73
2022/03/09 04:47:20;;;;;;;19.13;17.30;;;-2.90;18.00;;;;;;4956531;28;20174;-73
2022/03/09 04:49:46;;;;;;;15.70;14.53;;;-2.80;17.60;;;;;;4956728;28;20437;-73
2022/03/09 04:52:11;;;;;;;16.93;15.80;;;-2.80;17.50;;;;;;4978547;23;20499;-72
2022/03/09 04:54:38;;;;;;;15.93;14.88;;;-2.80;17.70;;;;;;4955961;29;20577;-72
2022/03/09 04:57:04;;;;;;;16.50;15.27;;;-2.80;17.50;;;;;;4956542;28;20257;-72
2022/03/09 04:59:30;;;;;;;16.87;15.57;;;-2.80;17.20;;;;;;4956616;28;20546;-72
2022/03/09 05:01:55;;;;;;;16.30;15.20;;;-2.80;17.10;;;;;;4956696;28;20205;-72
2022/03/09 05:04:21;;;;;;;16.73;15.43;;;-2.90;17.00;;;;;;4971531;28;20619;-72
2022/03/09 05:06:46;;;;;;;17.07;15.57;;;-2.90;17.20;;;;;;4956648;28;20746;-73
2022/03/09 05:09:12;;;;;;;17.03;15.40;;;-2.90;17.20;;;;;;4957209;28;20181;-73
2022/03/09 05:11:38;;;;;;;16.30;14.90;;;-2.90;17.00;;;;;;4956583;28;20198;-73
2022/03/09 05:14:03;;;;;;;16.60;15.13;;;-3.10;17.80;;;;;;4956388;28;20241;-73
2022/03/09 05:16:29;;;;;;;17.40;15.70;;;-3.00;17.60;;;;;;4971060;28;20190;-72
2022/03/09 05:18:54;;;;;;;17.83;16.40;;;-3.10;17.70;;;;;;4956447;28;20648;-73
2022/03/09 05:21:20;;;;;;;16.77;15.20;;;-3.10;17.70;;;;;;4956192;28;20213;-73
2022/03/09 05:23:45;;;;;;;16.97;15.47;;;-3.10;18.60;;;;;;4956248;28;20265;-72
2022/03/09 05:26:11;;;;;;;15.63;14.53;;;-3.20;18.20;;;;;;4956300;28;20386;-71
2022/03/09 05:28:36;;;;;;;15.67;14.43;;;-3.10;18.20;;;;;;4956000;28;20182;-72
2022/03/09 05:31:02;;;;;;;14.60;13.53;;;-3.20;18.90;;;;;;4956215;28;20177;-71
2022/03/09 05:33:28;;;;;;;17.00;15.40;;;-3.30;18.80;;;;;;4954874;28;20244;-73
2022/03/09 05:35:53;;;;;;;16.17;15.00;;;-3.30;19.00;;;;;;4970857;28;20422;-72
2022/03/09 05:38:19;;;;;;;17.50;16.07;;;-3.30;18.90;;;;;;4955805;28;20269;-72
2022/03/09 05:40:44;;;;;;;17.50;16.00;;;-3.30;19.60;;;;;;4956210;28;20202;-72
2022/03/09 05:43:10;;;;;;;18.67;16.93;;;-3.30;19.00;;;;;;4955811;28;20732;-72
2022/03/09 05:45:36;;;;;;;19.33;17.47;;;-3.50;19.50;;;;;;4956215;28;20174;-72
2022/03/09 05:48:01;;;;;;;20.10;18.37;;;-3.60;20.20;;;;;;4954738;28;20268;-72
2022/03/09 05:50:27;;;;;;;19.80;17.80;;;-3.50;19.90;;;;;;4956080;28;20185;-73
2022/03/09 05:52:52;;;;;;;18.17;16.60;;;-3.40;19.50;;;;;;4970400;28;20217;-72
2022/03/09 05:55:18;;;;;;;17.77;16.20;;;-3.40;19.10;;;;;;4954740;28;20187;-71
2022/03/09 05:57:44;;;;;;;20.03;17.77;;;-3.40;19.50;;;;;;4955123;28;20733;-71
2022/03/09 06:00:10;;;;;;;19.10;17.57;;;-3.40;19.40;;;;;;4955668;28;20651;-72
2022/03/09 06:02:35;;;;;;;18.15;16.52;;;-3.30;19.00;;;;;;4955451;28;20193;-72
2022/03/09 06:05:01;;;;;;;34.53;17.67;;;-3.20;19.00;;;;;;4955523;28;20529;-69
2022/03/09 06:07:26;;;;;;;19.53;17.83;;;-3.20;19.00;;;;;;4955397;28;20185;-72
2022/03/09 06:09:52;;;;;;;18.70;17.07;;;-3.50;19.70;;;;;;4955415;28;20182;-71
2022/03/09 06:12:18;;;;;;;18.97;17.00;;;-3.40;19.70;;;;;;4955253;28;20248;-72
2022/03/09 06:14:44;;;;;;;19.33;17.37;;;-3.40;19.60;;;;;;4955217;28;20184;-72
2022/03/09 06:17:09;;;;;;;20.80;18.73;;;-3.40;19.40;;;;;;4954810;28;20241;-72
2022/03/09 06:19:35;;;;;;;21.27;19.07;;;-3.60;20.00;;;;;;4955001;28;20651;-71
2022/03/09 06:22:00;;;;;;;20.83;18.93;;;-3.60;20.50;;;;;;4954825;28;20595;-74
2022/03/09 06:24:26;;;;;;;19.90;18.27;;;-3.60;20.30;;;;;;4969787;28;20185;-70
2022/03/09 06:26:53;;;;;;;21.53;17.83;;;-3.40;19.90;;;;;;4954724;28;20673;-69
2022/03/09 06:29:19;;;;;;;21.65;19.45;;;-3.20;20.10;;;;;;4954964;28;20640;-70
2022/03/09 06:31:45;;;;;;;19.42;17.55;;;-3.00;20.30;;;;;;4955152;28;20249;-72
2022/03/09 06:34:11;;;;;;;19.70;17.90;;;-2.70;19.40;;;;;;4954832;28;20186;-71
2022/03/09 06:36:37;;;;;;;21.70;19.70;;;-2.40;19.40;;;;;;4954507;28;20182;-69
2022/03/09 06:39:03;;;;;;;20.58;18.98;;;-2.00;17.80;;;;;;4954807;28;20409;-70
2022/03/09 06:41:29;;;;;;;20.27;18.03;;;-1.50;17.50;;;;;;4954499;28;20204;-71
2022/03/09 06:43:54;;;;;;;20.17;18.43;;;-1.10;17.90;;;;;;4954778;28;20174;-71
2022/03/09 06:46:22;;;;;;;24.43;19.47;;;-0.50;16.60;;;;;;4969720;28;20182;-70
2022/03/09 06:48:48;;;;;;;19.70;18.15;;;0.00;15.10;;;;;;4954622;28;20170;-70
2022/03/09 06:51:13;;;;;;;23.00;20.93;;;0.40;14.40;;;;;;4969428;28;20209;-70
2022/03/09 06:53:39;;;;;;;23.07;21.10;;;0.60;11.80;;;;;;4954463;28;20280;-71
2022/03/09 06:56:04;;;;;;;22.43;20.63;;;0.70;10.90;;;;;;4969221;28;20179;-70
2022/03/09 06:58:30;;;;;;;23.10;21.10;;;0.70;11.00;;;;;;4954367;28;20183;-70
2022/03/09 07:00:57;;;;;;;21.90;20.13;;;0.70;10.70;;;;;;4954494;28;20212;-71
2022/03/09 07:03:23;;;;;;;23.80;21.35;;;0.70;10.60;;;;;;4954289;28;20197;-71
2022/03/09 07:05:48;;;;;;;21.20;19.50;;;0.40;11.10;;;;;;4954331;28;20175;-71
2022/03/09 07:08:14;;;;;;;20.47;18.90;;;0.40;11.30;;;;;;4953789;28;20453;-71
2022/03/09 07:10:40;;;;;;;22.50;20.90;;;0.30;11.40;;;;;;4954291;28;20223;-70
2022/03/09 07:13:05;;;;;;;20.83;19.23;;;0.40;11.70;;;;;;4954381;28;20199;-70
2022/03/09 07:15:31;;;;;;;22.17;20.20;;;0.20;12.00;;;;;;4969364;28;20605;-70
2022/03/09 07:17:57;;;;;;;20.90;19.25;;;-0.10;12.70;;;;;;4954232;28;20182;-69
2022/03/09 07:20:23;;;;;;;22.07;19.77;;;-0.10;12.60;;;;;;4952959;28;20288;-69
2022/03/09 07:22:48;;;;;;;22.57;20.60;;;-0.10;13.30;;;;;;4954346;28;20194;-69
2022/03/09 07:25:14;;;;;;;21.70;19.90;;;0.00;12.70;;;;;;4954101;28;20211;-70
2022/03/09 07:27:40;;;;;;;23.98;21.73;;;-0.20;12.60;;;;;;4952610;28;20201;-70
2022/03/09 07:30:08;;;;;;;22.47;20.47;;;-0.90;14.20;;;;;;4954035;29;20205;-70
2022/03/09 07:32:34;;;;;;;22.67;20.75;;;-0.90;15.20;;;;;;4954043;28;20441;-71
2022/03/09 07:34:59;;;;;;;23.17;21.00;;;-0.50;14.60;;;;;;4954214;28;20589;-71
2022/03/09 07:37:25;;;;;;;23.23;21.43;;;-0.80;14.20;;;;;;4965607;28;20276;-69
2022/03/09 07:39:51;;;;;;;23.17;20.70;;;-0.90;14.20;;;;;;4951041;28;20193;-70
2022/03/09 07:42:16;;;;;;;22.13;20.20;;;-0.60;15.20;;;;;;4950113;28;20213;-68
2022/03/09 07:44:42;;;;;;;21.00;19.40;;;-0.50;13.60;;;;;;4950223;28;20830;-70
2022/03/09 07:47:08;;;;;;;21.63;19.63;;;-0.40;13.20;;;;;;4949269;28;20190;-70
2022/03/09 07:49:33;;;;;;;22.60;20.83;;;-0.20;13.40;;;;;;4950205;29;20238;-68
2022/03/09 07:52:04;;;;;;;20.87;19.37;;;0.00;13.30;;;;;;4949891;29;20418;-70
2022/03/09 07:54:29;;;;;;;23.10;20.90;;;0.20;12.90;;;;;;4948479;28;20197;-71
2022/03/09 07:56:56;;;;;;;22.03;20.17;;;0.40;11.70;;;;;;4949704;28;20194;-69
2022/03/09 07:59:22;;;;;;;20.30;18.67;;;0.50;12.50;;;;;;4945747;28;20916;-70
2022/03/09 08:01:52;;;;;;;25.50;20.57;;;0.60;11.60;;;;;;4947490;28;20223;-69
2022/03/09 08:04:18;;;;;;;23.50;21.17;;;0.70;11.70;;;;;;4948925;28;20181;-70
2022/03/09 08:06:44;;;;;;;21.48;19.90;;;0.70;10.20;;;;;;4948908;28;20188;-69
2022/03/09 08:09:10;;;;;;;21.77;19.67;;;0.80;10.30;;;;;;4948517;28;20849;-71
2022/03/09 08:11:36;;;;;;;20.83;19.05;;;0.60;10.70;;;;;;4944545;28;20271;-69
2022/03/09 08:14:01;;;;;;;21.43;19.83;;;0.80;11.10;;;;;;4951071;28;20266;-70
2022/03/09 08:16:27;;;;;;;20.07;18.77;;;1.00;11.80;;;;;;4947260;29;20190;-70
2022/03/09 08:18:52;;;;;;;22.53;20.20;;;1.20;10.40;;;;;;4935106;29;20249;-72
2022/03/09 08:21:18;;;;;;;20.40;18.63;;;1.40;10.40;;;;;;4955558;29;20220;-70
2022/03/09 08:23:43;;;;;;;22.97;20.87;;;1.40;10.30;;;;;;4956449;28;20271;-70
2022/03/09 08:26:09;;;;;;;24.30;21.90;;;1.30;9.30;;;;;;4949294;28;20170;-70
2022/03/09 08:28:35;;;;;;;20.27;18.57;;;1.20;10.10;;;;;;4944119;28;20184;-70
2022/03/09 08:31:00;;;;;;;22.20;20.37;;;1.40;10.20;;;;;;4963818;28;20199;-70
2022/03/09 08:33:26;;;;;;;23.27;21.27;;;1.60;10.40;;;;;;4952250;28;20208;-70
2022/03/09 08:35:53;;;;;;;21.57;19.67;;;1.80;9.60;;;;;;4953143;29;20193;-70
2022/03/09 08:38:18;;;;;;;21.70;20.02;;;1.90;10.70;;;;;;4952112;28;20248;-70
2022/03/09 08:40:44;;;;;;;24.27;22.33;;;2.10;10.30;;;;;;4952836;28;20213;-70
2022/03/09 08:43:10;;;;;;;23.23;21.23;;;2.20;9.80;;;;;;4956130;28;20202;-69
2022/03/09 08:45:36;;;;;;;21.73;20.00;;;2.20;9.10;;;;;;4956870;28;20174;-70
2022/03/09 08:48:01;;;;;;;21.87;20.30;;;2.40;9.20;;;;;;4956651;28;20665;-67
2022/03/09 08:50:27;;;;;;;21.70;19.80;;;2.50;10.00;;;;;;4956879;28;20253;-69
2022/03/09 08:52:53;;;;;;;21.53;19.83;;;2.70;9.60;;;;;;4949741;28;20230;-69
2022/03/09 08:55:18;;;;;;;20.10;18.60;;;2.70;9.50;;;;;;4937495;28;20262;-68
2022/03/09 08:57:44;;;;;;;21.33;19.57;;;2.90;8.90;;;;;;4937063;29;20425;-68
2022/03/09 09:00:10;;;;;;;22.77;21.07;;;3.00;9.00;;;;;;4937380;29;20230;-68
2022/03/09 09:02:36;;;;;;;21.10;19.13;;;3.10;8.60;;;;;;4937027;29;20195;-70
2022/03/09 09:05:02;;;;;;;22.25;20.48;;;3.20;9.20;;;;;;4938946;29;20179;-69
2022/03/09 09:07:28;;;;;;;22.30;20.60;;;3.30;9.90;;;;;;4966021;28;20574;-68
2022/03/09 09:09:53;;;;;;;20.90;19.30;;;3.40;8.60;;;;;;4948072;28;20182;-68
2022/03/09 09:12:19;;;;;;;22.23;20.50;;;3.50;7.70;;;;;;4950151;28;20558;-69
2022/03/09 09:14:44;;;;;;;23.17;21.17;;;3.60;7.60;;;;;;4954953;28;20182;-69
2022/03/09 09:17:10;;;;;;;21.27;19.33;;;3.60;7.80;;;;;;4952771;29;20178;-69
2022/03/09 09:19:36;;;;;;;22.00;20.37;;;3.70;7.60;;;;;;4936161;29;20262;-69
2022/03/09 09:22:03;;;;;;;22.63;20.70;;;3.80;7.80;;;;;;4936682;29;20605;-69
2022/03/09 09:24:29;;;;;;;20.77;19.17;;;4.00;8.00;;;;;;4937301;29;20942;-68
2022/03/09 09:26:55;;;;;;;20.50;18.80;;;4.10;8.70;;;;;;4935434;29;20276;-69
2022/03/09 09:29:20;;;;;;;20.60;18.70;;;4.20;8.10;;;;;;4951152;29;20429;-68
2022/03/09 09:31:47;;;;;;;21.77;19.97;;;4.30;8.20;;;;;;4936352;29;20207;-68
2022/03/09 09:34:13;;;;;;;21.65;19.88;;;4.40;7.00;;;;;;4936742;29;20418;-68
2022/03/09 09:36:42;;;;;;;23.00;20.92;;;4.60;7.00;;;;;;4936247;29;20182;-69
2022/03/09 09:39:08;;;;;;;21.77;19.88;;;4.60;7.00;;;;;;4936056;29;20178;-69
2022/03/09 09:41:34;;;;;;;19.43;18.07;;;4.70;6.40;;;;;;4936717;29;20215;-69
2022/03/09 09:44:00;;;;;;;22.00;20.13;;;4.80;6.90;;;;;;4936513;29;20177;-68
2022/03/09 09:46:26;;;;;;;20.08;18.40;;;4.80;6.20;;;;;;4936165;28;20182;-68
2022/03/09 09:48:52;;;;;;;20.58;19.13;;;4.60;6.50;;;;;;4936062;29;20183;-71
2022/03/09 09:51:18;;;;;;;44.13;23.83;;;4.80;7.10;;;;;;4936997;29;20206;-74
2022/03/09 09:53:45;;;;;;;22.27;20.50;;;5.00;7.20;;;;;;4936692;29;20194;-73
2022/03/09 09:56:13;;;;;;;21.67;20.08;;;5.20;6.30;;;;;;4936898;29;20578;-74
2022/03/09 09:58:41;;;;;;;19.77;18.30;;;5.30;7.40;;;;;;4934907;29;20188;-74
2022/03/09 10:01:07;;;;;;;43.33;25.63;;;5.50;6.00;;;;;;4935219;29;20718;-73
2022/03/09 10:03:33;;;;;;;21.13;19.90;;;5.60;5.20;;;;;;4945626;29;20216;-74
2022/03/09 10:05:59;;;;;;;21.70;20.20;;;5.80;5.70;;;;;;4953135;28;20187;-72
2022/03/09 10:08:24;;;;;;;21.87;19.90;;;5.90;5.10;;;;;;4939604;29;20188;-72
2022/03/09 10:10:57;;;;;;;22.50;20.23;;;6.00;5.10;;;;;;4954880;29;20240;-74
2022/03/09 10:13:26;;;;;;;20.65;18.95;;;6.00;4.90;;;;;;4957452;28;20674;-73
2022/03/09 10:16:16;;;;;;;22.70;20.95;;;6.20;5.90;;;;;;4955420;28;20249;-72
2022/03/09 10:18:56;;;;;;;23.80;21.80;;;6.40;3.70;;;;;;4952151;29;20180;-72
2022/03/09 10:21:30;;;;;;;22.75;20.77;;;6.60;3.70;;;;;;4954313;28;20475;-73
2022/03/09 10:24:07;;;;;;;21.33;19.27;;;6.60;3.20;;;;;;4954927;28;20659;-72
2022/03/09 10:26:36;;;;;;;20.27;18.70;;;6.60;3.10;;;;;;4954509;28;20736;-73
2022/03/09 10:29:04;;;;;;;21.27;19.57;;;6.70;2.40;;;;;;4955429;28;20427;-72
2022/03/09 10:31:43;;;;;;;23.70;21.80;;;6.90;1.60;;;;;;4953533;28;20437;-73
2022/03/09 10:34:14;;;;;;;23.20;21.27;;;6.80;1.00;;;;;;4943245;29;20965;-73
2022/03/09 10:37:05;;;;;;;24.47;21.87;;;6.80;1.00;;;;;;4954212;28;20491;-73
2022/03/09 10:39:34;;;;;;;22.73;21.23;;;7.00;1.00;;;;;;4954633;28;20443;-73
2022/03/09 10:42:01;;;;;;;21.57;20.00;;;7.20;1.00;;;;;;4951838;28;20472;-73
2022/03/09 10:44:42;;;;;;;22.70;20.90;;;7.20;1.00;;;;;;4954121;28;20965;-72
2022/03/09 10:47:08;;;;;;;23.47;21.40;;;7.40;1.00;;;;;;4953717;28;20987;-73
2022/03/09 10:49:34;;;;;;;23.67;21.60;;;7.50;1.00;;;;;;4952381;28;20429;-73
2022/03/09 10:52:01;;;;;;;23.27;20.90;;;7.60;1.00;;;;;;4953440;28;20348;-73
2022/03/09 10:54:28;;;;;;;22.30;20.60;;;7.70;1.00;;;;;;4952436;28;20425;-73
2022/03/09 10:57:08;;;;;;;23.80;21.30;;;7.50;1.00;;;;;;4954118;28;20862;-72
2022/03/09 10:59:52;;;;;;;21.77;20.23;;;7.60;1.00;;;;;;4954405;28;20488;-72
2022/03/09 11:02:19;;;;;;;22.47;20.87;;;7.90;1.00;;;;;;4953542;28;20477;-71
2022/03/09 11:05:08;;;;;;;21.50;19.70;;;8.00;1.00;;;;;;4977215;23;20433;-74
2022/03/09 11:07:36;;;;;;;24.77;22.30;;;8.20;1.00;;;;;;4911132;29;20509;-72
2022/03/09 11:10:01;;;;;;;22.90;20.83;;;8.30;1.00;;;;;;4915842;29;20410;-71
2022/03/09 11:12:28;;;;;;;22.13;20.47;;;8.30;1.00;;;;;;4915565;29;20428;-71
2022/03/09 11:14:54;;;;;;;21.50;19.77;;;8.40;1.00;;;;;;4915757;29;20203;-72
2022/03/09 11:17:23;;;;;;;23.83;21.93;;;8.50;1.00;;;;;;4914215;29;20964;-71
2022/03/09 11:19:48;;;;;;;23.00;21.20;;;8.60;1.00;;;;;;4915440;29;20427;-72
2022/03/09 11:22:14;;;;;;;21.93;20.23;;;8.80;1.00;;;;;;4912867;29;20492;-72
2022/03/09 11:24:40;;;;;;;23.97;22.27;;;8.80;1.00;;;;;;4915613;29;20240;-72
2022/03/09 11:27:07;;;;;;;22.80;21.30;;;8.90;1.00;;;;;;4915438;29;20461;-72
2022/03/09 11:29:37;;;;;;;23.77;21.87;;;9.10;1.00;;;;;;4929757;29;20214;-72
2022/03/09 11:32:08;;;;;;;22.60;21.30;;;9.30;1.00;;;;;;4915143;29;21173;-71
2022/03/09 11:34:47;;;;;;;23.37;21.37;;;9.40;1.00;;;;;;4915890;29;20449;-74
2022/03/09 11:37:37;;;;;;;24.03;22.07;;;9.60;1.00;;;;;;4915773;29;20431;-71
2022/03/09 11:40:06;;;;;;;21.93;20.10;;;9.70;1.00;;;;;;4914889;29;20927;-72
2022/03/09 11:42:34;;;;;;;21.40;20.07;;;9.90;1.00;;;;;;4914072;29;20801;-70
2022/03/09 11:45:15;;;;;;;22.97;21.27;;;10.00;1.00;;;;;;4915749;29;20449;-70
2022/03/09 11:48:05;;;;;;;24.50;22.30;;;10.10;1.00;;;;;;4914240;29;20437;-73
2022/03/09 11:50:34;;;;;;;23.20;21.67;;;10.10;1.00;;;;;;4914283;29;20434;-71
2022/03/09 11:53:05;;;;;;;19.63;18.43;;;10.20;1.00;;;;;;4916643;29;20446;-71
2022/03/09 11:55:32;;;;;;;21.97;20.37;;;10.30;1.00;;;;;;4919609;29;20841;-71
2022/03/09 11:58:04;;;;;;;21.23;19.90;;;10.40;1.00;;;;;;4918972;29;20441;-70
2022/03/09 12:00:30;;;;;;;22.53;20.73;;;10.40;1.00;;;;;;4919984;29;20481;-70
2022/03/09 12:02:56;;;;;;;23.10;21.33;;;10.50;1.00;;;;;;4918548;29;20426;-69
2022/03/09 12:05:25;;;;;;;23.03;21.03;;;10.60;1.00;;;;;;4918872;29;20454;-68
2022/03/09 12:08:05;;;;;;;23.47;21.80;;;10.60;1.00;;;;;;4899793;29;20499;-70
2022/03/09 12:10:50;;;;;;;23.40;21.60;;;10.80;1.00;;;;;;4900098;29;20419;-69
2022/03/09 12:13:16;;;;;;;23.80;22.10;;;10.80;1.00;;;;;;4899757;29;20433;-69
2022/03/09 12:16:00;;;;;;;22.20;20.70;;;10.70;1.00;;;;;;4904642;29;20948;-69
2022/03/09 12:18:55;;;;;;;62.50;23.97;;;10.90;1.00;;;;;;4915817;29;20424;-68
2022/03/09 12:21:27;;;;;;;23.33;21.50;;;11.00;1.00;;;;;;4919200;29;20522;-69
2022/03/09 12:24:15;;;;;;;24.40;22.20;;;11.00;1.00;;;;;;4917110;29;20713;-69
2022/03/09 12:26:45;;;;;;;23.77;22.03;;;11.20;1.00;;;;;;4918982;29;20449;-69
2022/03/09 12:29:23;;;;;;;22.00;20.23;;;11.30;1.00;;;;;;4916910;29;21001;-70
2022/03/09 12:32:02;;;;;;;22.13;20.73;;;11.40;1.00;;;;;;4917639;29;20967;-70
2022/03/09 12:34:30;;;;;;;22.57;20.77;;;11.50;1.00;;;;;;4918305;29;20429;-70